Time,TemperatureF,DewpointF,PressureIn,WindDirection,WindDirectionDegrees,WindSpeedMPH,WindSpeedGustMPH,Humidity,HourlyPrecipIn,Conditions,Clouds,dailyrainin,SolarRadiationWatts/m^2,SoftwareType,DateUTC
2013-11-11 00:00:00,8.5,3.9,30.43,NW,315,4.0,8.0,81,0.00,,,0.00,0.00,VWS V14.01,2013-11-11 06:00:00,
2013-11-11 00:30:00,10.6,5.4,30.45,NW,315,6.0,14.0,79,0.00,,,0.00,0.00,VWS V14.01,2013-11-11 06:30:00,
2013-11-11 01:00:00,11.2,5.1,30.45,NW,315,8.0,14.0,76,0.00,,,0.00,0.00,VWS V14.01,2013-11-11 07:00:00,
2013-11-11 01:30:00,11.3,4.9,30.47,NNW,338,9.0,16.0,75,0.00,,,0.00,0.00,VWS V14.01,2013-11-11 07:30:00,
2013-11-11 02:00:00,11.0,4.6,30.48,NNW,338,10.0,15.0,75,0.00,,,0.00,0.00,VWS V14.01,2013-11-11 08:00:00,
2013-11-11 02:30:00,11.0,4.6,30.49,NNW,338,10.0,18.0,75,0.00,,,0.00,0.00,VWS V14.01,2013-11-11 08:30:00,
2013-11-11 03:00:00,10.7,4.6,30.49,NNW,338,11.0,16.0,76,0.00,,,0.00,0.00,VWS V14.01,2013-11-11 09:00:00,
2013-11-11 03:30:00,10.7,4.9,30.51,NNW,338,10.0,16.0,77,0.00,,,0.00,0.00,VWS V14.01,2013-11-11 09:30:00,
2013-11-11 04:00:00,10.3,4.5,30.52,NNW,338,10.0,18.0,77,0.00,,,0.00,0.00,VWS V14.01,2013-11-11 10:00:00,
2013-11-11 04:30:00,10.0,4.2,30.53,NNW,338,9.0,15.0,77,0.00,,,0.00,0.00,VWS V14.01,2013-11-11 10:30:00,
2013-11-11 05:00:00,10.6,4.8,30.54,NNW,338,11.0,18.0,77,0.00,,,0.00,0.00,VWS V14.01,2013-11-11 11:00:00,
2013-11-11 05:30:00,10.2,4.2,30.55,NNW,338,12.0,21.0,76,0.00,,,0.00,0.00,VWS V14.01,2013-11-11 11:30:00,
2013-11-11 06:00:00,8.9,2.9,30.58,NNW,338,9.0,17.0,76,0.00,,,0.00,0.00,VWS V14.01,2013-11-11 12:00:00,
2013-11-11 06:30:00,8.1,2.7,30.58,NNW,338,8.0,13.0,78,0.00,,,0.00,0.00,VWS V14.01,2013-11-11 12:30:00,
2013-11-11 07:00:00,8.0,2.8,30.60,NNW,338,7.0,12.0,79,0.00,,,0.00,0.00,VWS V14.01,2013-11-11 13:00:00,
2013-11-11 07:30:00,7.6,2.7,30.61,NNW,338,9.0,15.0,80,0.00,,,0.00,0.00,VWS V14.01,2013-11-11 13:30:00,
2013-11-11 08:00:00,7.6,2.7,30.62,NNW,338,9.0,14.0,80,0.00,,,0.00,6.00,VWS V14.01,2013-11-11 14:00:00,
2013-11-11 08:30:00,9.2,4.0,30.64,NNW,338,9.0,15.0,79,0.00,,,0.00,48.00,VWS V14.01,2013-11-11 14:30:00,
2013-11-11 09:00:00,11.5,5.7,30.67,NW,324,9.0,17.0,77,0.00,,,0.00,276.00,VWS V14.01,2013-11-11 15:00:00,
2013-11-11 09:03:00,9.2,4.0,30.64,NNW,338,9.0,15.0,79,0.00,,,0.00,48.00,VWS V14.01,2013-11-11 15:03:00,
2013-11-11 09:08:00,9.9,4.7,30.65,NNW,346,15.0,17.0,79,0.00,,,0.00,160.00,VWS V14.01,2013-11-11 15:08:00,
2013-11-11 09:13:00,10.2,5.0,30.65,NNW,334,13.0,17.0,79,0.00,,,0.00,128.00,VWS V14.01,2013-11-11 15:13:00,
2013-11-11 09:18:00,10.4,4.9,30.65,NNW,335,10.0,17.0,78,0.00,,,0.00,144.00,VWS V14.01,2013-11-11 15:18:00,
2013-11-11 09:23:00,10.8,5.6,30.66,NNW,337,15.0,17.0,79,0.00,,,0.00,132.00,VWS V14.01,2013-11-11 15:23:00,
2013-11-11 09:28:00,10.8,5.3,30.66,NNW,337,11.0,17.0,78,0.00,,,0.00,114.00,VWS V14.01,2013-11-11 15:28:00,
2013-11-11 09:30:00,10.9,5.7,30.66,NNW,339,8.0,17.0,79,0.00,,,0.00,123.00,VWS V14.01,2013-11-11 15:30:00,
2013-11-11 09:33:00,10.8,5.3,30.66,North,354,14.0,17.0,78,0.00,,,0.00,111.00,VWS V14.01,2013-11-11 15:33:00,
2013-11-11 09:38:00,11.0,5.5,30.66,NNW,330,9.0,17.0,78,0.00,,,0.00,156.00,VWS V14.01,2013-11-11 15:38:00,
2013-11-11 09:43:00,11.0,5.5,30.66,NNW,330,12.0,17.0,78,0.00,,,0.00,153.00,VWS V14.01,2013-11-11 15:43:00,
2013-11-11 09:48:00,11.0,5.2,30.66,NNW,341,14.0,17.0,77,0.00,,,0.00,206.00,VWS V14.01,2013-11-11 15:48:00,
2013-11-11 09:53:00,11.3,5.5,30.67,NNW,328,8.0,17.0,77,0.00,,,0.00,200.00,VWS V14.01,2013-11-11 15:53:00,
2013-11-11 09:58:00,11.7,5.6,30.67,NNW,335,10.0,17.0,76,0.00,,,0.00,334.00,VWS V14.01,2013-11-11 15:58:00,
2013-11-11 10:00:00,11.5,5.7,30.67,NW,324,9.0,17.0,77,0.00,,,0.00,276.00,VWS V14.01,2013-11-11 16:00:00,
2013-11-11 10:03:00,11.9,5.5,30.67,NNW,330,14.0,19.0,75,0.00,,,0.00,276.00,VWS V14.01,2013-11-11 16:03:00,
2013-11-11 10:08:00,11.6,5.2,30.67,North,354,14.0,19.0,75,0.00,,,0.00,320.00,VWS V14.01,2013-11-11 16:08:00,
2013-11-11 10:13:00,12.5,6.4,30.67,NNW,327,8.0,19.0,76,0.00,,,0.00,299.00,VWS V14.01,2013-11-11 16:13:00,
2013-11-11 10:18:00,12.3,5.6,30.67,NNW,338,12.0,19.0,74,0.00,,,0.00,244.00,VWS V14.01,2013-11-11 16:18:00,
2013-11-11 10:23:00,12.2,5.5,30.67,NNW,334,11.0,19.0,74,0.00,,,0.00,234.00,VWS V14.01,2013-11-11 16:23:00,
2013-11-11 10:28:00,12.6,6.2,30.67,NNW,331,11.0,12.0,75,0.00,,,0.00,255.00,VWS V14.01,2013-11-11 16:28:00,
2013-11-11 10:30:00,12.3,5.6,30.67,NNW,340,12.0,19.0,74,0.00,,,0.00,276.00,VWS V14.01,2013-11-11 16:30:00,
2013-11-11 10:33:00,12.8,6.1,30.68,NNW,337,8.0,13.0,74,0.00,,,0.00,225.00,VWS V14.01,2013-11-11 16:33:00,
2013-11-11 10:38:00,13.0,6.3,30.68,NW,326,6.0,13.0,74,0.00,,,0.00,272.00,VWS V14.01,2013-11-11 16:38:00,
2013-11-11 10:43:00,13.3,6.9,30.68,NW,323,9.0,13.0,75,0.00,,,0.00,223.00,VWS V14.01,2013-11-11 16:43:00,
2013-11-11 10:48:00,13.1,6.1,30.68,NW,316,10.0,14.0,73,0.00,,,0.00,229.00,VWS V14.01,2013-11-11 16:48:00,
2013-11-11 10:53:00,13.3,6.6,30.68,North,349,10.0,14.0,74,0.00,,,0.00,193.00,VWS V14.01,2013-11-11 16:53:00,
2013-11-11 10:58:00,13.2,6.5,30.68,NW,316,8.0,12.0,74,0.00,,,0.00,216.00,VWS V14.01,2013-11-11 16:58:00,
2013-11-11 11:00:00,13.2,6.5,30.68,NNW,337,12.0,14.0,74,0.00,,,0.00,195.00,VWS V14.01,2013-11-11 17:00:00,
2013-11-11 11:03:00,13.5,6.5,30.68,NW,310,7.0,12.0,73,0.00,,,0.00,211.00,VWS V14.01,2013-11-11 17:03:00,
2013-11-11 11:08:00,13.5,6.2,30.68,NNW,333,6.0,12.0,72,0.00,,,0.00,218.00,VWS V14.01,2013-11-11 17:08:00,
2013-11-11 11:13:00,13.7,6.7,30.69,NW,314,5.0,12.0,73,0.00,,,0.00,239.00,VWS V14.01,2013-11-11 17:13:00,
2013-11-11 11:18:00,13.9,6.9,30.68,NNW,344,8.0,12.0,73,0.00,,,0.00,239.00,VWS V14.01,2013-11-11 17:18:00,
2013-11-11 11:23:00,14.1,6.8,30.69,NNW,341,10.0,12.0,72,0.00,,,0.00,213.00,VWS V14.01,2013-11-11 17:23:00,
2013-11-11 11:28:00,14.1,7.1,30.69,NW,305,7.0,10.0,73,0.00,,,0.00,258.00,VWS V14.01,2013-11-11 17:28:00,
2013-11-11 11:30:00,14.0,6.9,30.69,NNW,327,1.0,12.0,73,0.00,,,0.00,265.00,VWS V14.01,2013-11-11 17:30:00,
2013-11-11 11:33:00,14.2,7.2,30.69,NNW,337,6.0,10.0,73,0.00,,,0.00,274.00,VWS V14.01,2013-11-11 17:33:00,
2013-11-11 11:38:00,14.2,6.8,30.69,NNW,332,3.0,10.0,72,0.00,,,0.00,258.00,VWS V14.01,2013-11-11 17:38:00,
2013-11-11 11:43:00,14.4,7.0,30.69,NW,306,5.0,11.0,72,0.00,,,0.00,271.00,VWS V14.01,2013-11-11 17:43:00,
2013-11-11 11:47:00,14.8,7.1,30.69,NW,316,6.0,11.0,71,0.00,,,0.00,271.00,VWS V14.01,2013-11-11 17:47:00,
2013-11-11 11:52:00,14.8,7.1,30.69,WNW,299,8.0,11.0,71,0.00,,,0.00,283.00,VWS V14.01,2013-11-11 17:52:00,
2013-11-11 11:57:00,14.8,7.1,30.69,NW,318,7.0,9.0,71,0.00,,,0.00,253.00,VWS V14.01,2013-11-11 17:57:00,
2013-11-11 12:00:00,14.7,6.7,30.69,NNW,333,5.0,11.0,70,0.00,,,0.00,294.00,VWS V14.01,2013-11-11 18:00:00,
2013-11-11 12:02:00,15.1,7.1,30.69,WNW,291,6.0,9.0,70,0.00,,,0.00,301.00,VWS V14.01,2013-11-11 18:02:00,
2013-11-11 12:07:00,15.3,7.3,30.69,NNW,339,9.0,9.0,70,0.00,,,0.00,267.00,VWS V14.01,2013-11-11 18:07:00,
2013-11-11 12:13:00,15.2,6.9,30.69,North,354,5.0,10.0,69,0.00,,,0.00,281.00,VWS V14.01,2013-11-11 18:13:00,
2013-11-11 12:17:00,15.5,6.8,30.69,NW,326,6.0,10.0,68,0.00,,,0.00,227.00,VWS V14.01,2013-11-11 18:17:00,
2013-11-11 12:22:00,15.4,7.1,30.69,NW,326,4.0,10.0,69,0.00,,,0.00,207.00,VWS V14.01,2013-11-11 18:22:00,
2013-11-11 12:27:00,15.5,7.2,30.69,NNW,327,3.0,5.0,69,0.00,,,0.00,243.00,VWS V14.01,2013-11-11 18:27:00,
2013-11-11 12:30:00,15.3,6.7,30.69,NNW,329,1.0,10.0,68,0.00,,,0.00,202.00,VWS V14.01,2013-11-11 18:30:00,
2013-11-11 12:32:00,15.5,6.8,30.69,WNW,302,3.0,5.0,68,0.00,,,0.00,206.00,VWS V14.01,2013-11-11 18:32:00,
2013-11-11 12:37:00,15.9,7.5,30.69,NNW,332,7.0,8.0,69,0.00,,,0.00,155.00,VWS V14.01,2013-11-11 18:37:00,
2013-11-11 12:42:00,15.9,7.2,30.69,NW,308,3.0,11.0,68,0.00,,,0.00,149.00,VWS V14.01,2013-11-11 18:42:00,
2013-11-11 12:47:00,16.4,7.7,30.69,NNW,336,10.0,11.0,68,0.00,,,0.00,308.00,VWS V14.01,2013-11-11 18:47:00,
2013-11-11 12:52:00,16.2,7.2,30.69,NW,319,5.0,11.0,67,0.00,,,0.00,195.00,VWS V14.01,2013-11-11 18:52:00,
2013-11-11 12:57:00,16.4,6.7,30.69,WNW,297,6.0,12.0,65,0.00,,,0.00,176.00,VWS V14.01,2013-11-11 18:57:00,
2013-11-11 13:00:00,16.4,7.4,30.69,NW,310,6.0,11.0,67,0.00,,,0.00,199.00,VWS V14.01,2013-11-11 19:00:00,
2013-11-11 13:02:00,16.5,6.5,30.69,West,259,10.0,12.0,64,0.00,,,0.00,197.00,VWS V14.01,2013-11-11 19:02:00,
2013-11-11 13:07:00,16.4,6.4,30.69,WNW,290,8.0,12.0,64,0.00,,,0.00,149.00,VWS V14.01,2013-11-11 19:07:00,
2013-11-11 13:12:00,16.4,6.0,30.69,WNW,301,9.0,12.0,63,0.00,,,0.00,130.00,VWS V14.01,2013-11-11 19:12:00,
2013-11-11 13:17:00,16.4,6.0,30.69,WNW,289,7.0,12.0,63,0.00,,,0.00,195.00,VWS V14.01,2013-11-11 19:17:00,
2013-11-11 13:22:00,16.6,6.6,30.69,West,274,5.0,12.0,64,0.00,,,0.00,167.00,VWS V14.01,2013-11-11 19:22:00,
2013-11-11 13:27:00,16.7,7.0,30.69,West,279,7.0,15.0,65,0.00,,,0.00,190.00,VWS V14.01,2013-11-11 19:27:00,
2013-11-11 13:30:00,16.7,6.3,30.69,WSW,256,9.0,12.0,63,0.00,,,0.00,522.00,VWS V14.01,2013-11-11 19:30:00,
2013-11-11 13:32:00,16.2,9.1,30.69,WNW,285,12.0,16.0,73,0.00,,,0.00,179.00,VWS V14.01,2013-11-11 19:32:00,
2013-11-11 13:37:00,15.9,10.3,30.70,West,274,8.0,16.0,78,0.00,,,0.00,195.00,VWS V14.01,2013-11-11 19:37:00,
2013-11-11 13:42:00,16.1,10.8,30.69,WNW,297,10.0,16.0,79,0.00,,,0.00,209.00,VWS V14.01,2013-11-11 19:42:00,
2013-11-11 13:47:00,16.1,9.9,30.69,West,274,7.0,16.0,76,0.00,,,0.00,193.00,VWS V14.01,2013-11-11 19:47:00,
2013-11-11 13:52:00,16.4,10.2,30.69,WNW,293,7.0,16.0,76,0.00,,,0.00,257.00,VWS V14.01,2013-11-11 19:52:00,
2013-11-11 13:57:00,16.4,9.6,30.69,WSW,252,7.0,11.0,74,0.00,,,0.00,202.00,VWS V14.01,2013-11-11 19:57:00,
2013-11-11 14:00:00,16.2,8.8,30.69,NW,311,10.0,16.0,72,0.00,,,0.00,204.00,VWS V14.01,2013-11-11 20:00:00,
2013-11-11 14:02:00,16.6,9.8,30.69,WNW,303,8.0,11.0,74,0.00,,,0.00,285.00,VWS V14.01,2013-11-11 20:02:00,
2013-11-11 14:07:00,16.3,9.8,30.69,West,278,6.0,12.0,75,0.00,,,0.00,113.00,VWS V14.01,2013-11-11 20:07:00,
2013-11-11 14:12:00,16.1,9.6,30.69,West,278,7.0,12.0,75,0.00,,,0.00,165.00,VWS V14.01,2013-11-11 20:12:00,
2013-11-11 14:17:00,16.1,9.6,30.69,West,274,4.0,13.0,75,0.00,,,0.00,116.00,VWS V14.01,2013-11-11 20:17:00,
2013-11-11 14:22:00,16.2,9.7,30.69,West,276,7.0,13.0,75,0.00,,,0.00,127.00,VWS V14.01,2013-11-11 20:22:00,
2013-11-11 14:27:00,16.5,10.0,30.68,WNW,291,7.0,8.0,75,0.00,,,0.00,121.00,VWS V14.01,2013-11-11 20:27:00,
2013-11-11 14:30:00,16.3,9.8,30.68,West,268,4.0,13.0,75,0.00,,,0.00,125.00,VWS V14.01,2013-11-11 20:30:00,
2013-11-11 14:32:00,16.4,9.3,30.68,West,271,4.0,12.0,73,0.00,,,0.00,111.00,VWS V14.01,2013-11-11 20:32:00,
2013-11-11 14:37:00,16.4,9.3,30.68,West,272,6.0,12.0,73,0.00,,,0.00,105.00,VWS V14.01,2013-11-11 20:37:00,
2013-11-11 14:42:00,16.2,8.8,30.69,West,267,7.0,12.0,72,0.00,,,0.00,123.00,VWS V14.01,2013-11-11 20:42:00,
2013-11-11 14:47:00,16.4,9.0,30.68,West,270,4.0,12.0,72,0.00,,,0.00,348.00,VWS V14.01,2013-11-11 20:47:00,
2013-11-11 14:52:00,16.4,8.7,30.68,WSW,258,4.0,12.0,71,0.00,,,0.00,111.00,VWS V14.01,2013-11-11 20:52:00,
2013-11-11 14:57:00,16.3,8.9,30.69,WNW,300,6.0,11.0,72,0.00,,,0.00,97.00,VWS V14.01,2013-11-11 20:57:00,
2013-11-11 15:00:00,16.4,9.0,30.69,WNW,289,9.0,12.0,72,0.00,,,0.00,109.00,VWS V14.01,2013-11-11 21:00:00,
2013-11-11 15:02:00,16.3,8.9,30.69,WNW,289,4.0,11.0,72,0.00,,,0.00,88.00,VWS V14.01,2013-11-11 21:02:00,
2013-11-11 15:07:00,16.5,9.1,30.68,WNW,293,9.0,12.0,72,0.00,,,0.00,95.00,VWS V14.01,2013-11-11 21:07:00,
2013-11-11 15:12:00,16.3,8.2,30.69,West,264,9.0,12.0,70,0.00,,,0.00,91.00,VWS V14.01,2013-11-11 21:12:00,
2013-11-11 15:17:00,16.2,8.1,30.69,WNW,292,3.0,12.0,70,0.00,,,0.00,79.00,VWS V14.01,2013-11-11 21:17:00,
2013-11-11 15:22:00,16.2,8.1,30.69,WSW,258,5.0,12.0,70,0.00,,,0.00,86.00,VWS V14.01,2013-11-11 21:22:00,
2013-11-11 15:27:00,16.4,8.7,30.70,West,276,7.0,9.0,71,0.00,,,0.00,58.00,VWS V14.01,2013-11-11 21:27:00,
2013-11-11 15:30:00,16.4,8.7,30.69,WNW,293,4.0,12.0,71,0.00,,,0.00,67.00,VWS V14.01,2013-11-11 21:30:00,
2013-11-11 15:32:00,16.3,8.2,30.70,WNW,287,8.0,10.0,70,0.00,,,0.00,53.00,VWS V14.01,2013-11-11 21:32:00,
2013-11-11 15:37:00,16.2,8.5,30.70,West,262,8.0,11.0,71,0.00,,,0.00,51.00,VWS V14.01,2013-11-11 21:37:00,
2013-11-11 15:42:00,16.1,8.7,30.69,WNW,303,8.0,12.0,72,0.00,,,0.00,47.00,VWS V14.01,2013-11-11 21:42:00,
2013-11-11 15:47:00,16.0,8.6,30.70,WNW,301,7.0,12.0,72,0.00,,,0.00,49.00,VWS V14.01,2013-11-11 21:47:00,
2013-11-11 15:52:00,15.8,7.8,30.70,NW,305,6.0,12.0,70,0.00,,,0.00,56.00,VWS V14.01,2013-11-11 21:52:00,
2013-11-11 15:57:00,15.9,8.2,30.70,WNW,287,4.0,8.0,71,0.00,,,0.00,56.00,VWS V14.01,2013-11-11 21:57:00,
2013-11-11 16:00:00,15.9,8.2,30.70,West,278,5.0,12.0,71,0.00,,,0.00,60.00,VWS V14.01,2013-11-11 22:00:00,
2013-11-11 16:02:00,16.0,8.3,30.70,West,263,6.0,10.0,71,0.00,,,0.00,49.00,VWS V14.01,2013-11-11 22:02:00,
2013-11-11 16:07:00,16.0,8.3,30.70,West,276,5.0,10.0,71,0.00,,,0.00,47.00,VWS V14.01,2013-11-11 22:07:00,
2013-11-11 16:12:00,16.0,8.3,30.71,West,274,8.0,10.0,71,0.00,,,0.00,39.00,VWS V14.01,2013-11-11 22:12:00,
2013-11-11 16:17:00,15.7,8.3,30.71,West,262,7.0,10.0,72,0.00,,,0.00,44.00,VWS V14.01,2013-11-11 22:17:00,
2013-11-11 16:22:00,15.5,8.1,30.71,WNW,296,7.0,11.0,72,0.00,,,0.00,23.00,VWS V14.01,2013-11-11 22:22:00,
2013-11-11 16:27:00,15.2,7.8,30.71,West,269,5.0,8.0,72,0.00,,,0.00,23.00,VWS V14.01,2013-11-11 22:27:00,
2013-11-11 16:30:00,15.3,7.9,30.71,West,278,4.0,12.0,72,0.00,,,0.00,19.00,VWS V14.01,2013-11-11 22:30:00,
2013-11-11 16:32:00,15.2,7.8,30.71,West,264,6.0,8.0,72,0.00,,,0.00,21.00,VWS V14.01,2013-11-11 22:32:00,
2013-11-11 16:37:00,15.2,7.8,30.71,West,280,6.0,10.0,72,0.00,,,0.00,16.00,VWS V14.01,2013-11-11 22:37:00,
2013-11-11 16:42:00,15.0,7.9,30.71,West,276,7.0,10.0,73,0.00,,,0.00,12.00,VWS V14.01,2013-11-11 22:42:00,
2013-11-11 16:47:00,15.0,7.9,30.71,WNW,282,2.0,10.0,73,0.00,,,0.00,9.00,VWS V14.01,2013-11-11 22:47:00,
2013-11-11 16:52:00,14.9,7.8,30.72,WNW,285,3.0,10.0,73,0.00,,,0.00,0.00,VWS V14.01,2013-11-11 22:52:00,
2013-11-11 16:57:00,14.7,7.9,30.72,West,274,2.0,6.0,74,0.00,,,0.00,0.00,VWS V14.01,2013-11-11 22:57:00,
2013-11-11 17:00:00,14.8,8.0,30.72,West,274,6.0,10.0,74,0.00,,,0.00,0.00,VWS V14.01,2013-11-11 23:00:00,
2013-11-11 17:02:00,14.3,7.2,30.72,West,277,6.0,9.0,73,0.00,,,0.00,0.00,VWS V14.01,2013-11-11 23:02:00,
2013-11-11 17:07:00,13.9,7.2,30.72,WNW,286,1.0,9.0,74,0.00,,,0.00,0.00,VWS V14.01,2013-11-11 23:07:00,
2013-11-11 17:12:00,13.5,6.8,30.72,WNW,286,3.0,9.0,74,0.00,,,0.00,0.00,VWS V14.01,2013-11-11 23:12:00,
2013-11-11 17:17:00,13.4,7.0,30.72,WNW,286,4.0,9.0,75,0.00,,,0.00,0.00,VWS V14.01,2013-11-11 23:17:00,
2013-11-11 17:22:00,13.3,6.6,30.72,WNW,286,2.0,9.0,74,0.00,,,0.00,0.00,VWS V14.01,2013-11-11 23:22:00,
2013-11-11 17:27:00,13.5,6.8,30.72,West,260,2.0,4.0,74,0.00,,,0.00,0.00,VWS V14.01,2013-11-11 23:27:00,
2013-11-11 17:30:00,13.4,6.7,30.72,West,260,2.0,9.0,74,0.00,,,0.00,0.00,VWS V14.01,2013-11-11 23:30:00,
2013-11-11 17:32:00,13.6,6.6,30.72,West,263,3.0,6.0,73,0.00,,,0.00,0.00,VWS V14.01,2013-11-11 23:32:00,
2013-11-11 17:37:00,13.5,6.2,30.73,West,273,2.0,7.0,72,0.00,,,0.00,0.00,VWS V14.01,2013-11-11 23:37:00,
2013-11-11 17:42:00,13.4,6.1,30.73,West,269,4.0,7.0,72,0.00,,,0.00,0.00,VWS V14.01,2013-11-11 23:42:00,
2013-11-11 17:47:00,13.2,5.9,30.73,West,268,4.0,7.0,72,0.00,,,0.00,0.00,VWS V14.01,2013-11-11 23:47:00,
2013-11-11 17:52:00,13.1,6.1,30.72,West,268,3.0,7.0,73,0.00,,,0.00,0.00,VWS V14.01,2013-11-11 23:52:00,
2013-11-11 17:57:00,13.1,6.1,30.72,West,268,3.0,3.0,73,0.00,,,0.00,0.00,VWS V14.01,2013-11-11 23:57:00,
2013-11-11 18:00:00,13.1,6.1,30.72,West,268,2.0,7.0,73,0.00,,,0.00,0.00,VWS V14.01,2013-11-12 00:00:00,
2013-11-11 18:01:00,13.1,6.1,30.73,West,268,2.0,3.0,73,0.00,,,0.00,0.00,VWS V14.01,2013-11-12 00:01:00,
2013-11-11 18:06:00,13.1,6.1,30.72,West,268,2.0,5.0,73,0.00,,,0.00,0.00,VWS V14.01,2013-11-12 00:06:00,
2013-11-11 18:11:00,13.0,6.0,30.72,West,268,2.0,5.0,73,0.00,,,0.00,0.00,VWS V14.01,2013-11-12 00:11:00,
2013-11-11 18:16:00,12.9,5.9,30.72,West,268,0.0,5.0,73,0.00,,,0.00,0.00,VWS V14.01,2013-11-12 00:16:00,
2013-11-11 18:21:00,12.9,5.9,30.72,West,268,1.0,5.0,73,0.00,,,0.00,0.00,VWS V14.01,2013-11-12 00:21:00,
2013-11-11 18:26:00,12.8,6.1,30.72,West,268,1.0,3.0,74,0.00,,,0.00,0.00,VWS V14.01,2013-11-12 00:26:00,
2013-11-11 18:30:00,12.9,6.2,30.72,West,268,0.0,5.0,74,0.00,,,0.00,0.00,VWS V14.01,2013-11-12 00:30:00,
2013-11-11 18:31:00,12.8,6.1,30.72,West,268,1.0,3.0,74,0.00,,,0.00,0.00,VWS V14.01,2013-11-12 00:31:00,
2013-11-11 18:36:00,12.8,6.1,30.72,West,268,0.0,3.0,74,0.00,,,0.00,0.00,VWS V14.01,2013-11-12 00:36:00,
2013-11-11 18:41:00,12.7,6.0,30.72,West,268,0.0,3.0,74,0.00,,,0.00,0.00,VWS V14.01,2013-11-12 00:41:00,
2013-11-11 18:46:00,12.6,6.2,30.72,West,268,0.0,3.0,75,0.00,,,0.00,0.00,VWS V14.01,2013-11-12 00:46:00,
2013-11-11 18:51:00,12.5,6.1,30.72,West,268,0.0,3.0,75,0.00,,,0.00,0.00,VWS V14.01,2013-11-12 00:51:00,
2013-11-11 18:56:00,12.5,6.1,30.72,West,268,0.0,3.0,75,0.00,,,0.00,0.00,VWS V14.01,2013-11-12 00:56:00,
2013-11-11 19:00:00,12.5,6.1,30.72,West,268,1.0,3.0,75,0.00,,,0.00,0.00,VWS V14.01,2013-11-12 01:00:00,
2013-11-11 19:01:00,12.3,5.9,30.71,West,268,3.0,3.0,75,0.00,,,0.00,0.00,VWS V14.01,2013-11-12 01:01:00,
2013-11-11 19:06:00,12.3,5.9,30.71,West,268,0.0,4.0,75,0.00,,,0.00,0.00,VWS V14.01,2013-11-12 01:06:00,
2013-11-11 19:11:00,12.2,5.8,30.71,West,268,4.0,4.0,75,0.00,,,0.00,0.00,VWS V14.01,2013-11-12 01:11:00,
2013-11-11 19:16:00,12.1,6.0,30.71,West,268,3.0,4.0,76,0.00,,,0.00,0.00,VWS V14.01,2013-11-12 01:16:00,
2013-11-11 19:21:00,12.0,5.9,30.71,West,268,0.0,4.0,76,0.00,,,0.00,0.00,VWS V14.01,2013-11-12 01:21:00,
2013-11-11 19:26:00,11.9,5.8,30.71,West,268,1.0,3.0,76,0.00,,,0.00,0.00,VWS V14.01,2013-11-12 01:26:00,
2013-11-11 19:30:00,12.0,5.9,30.72,West,268,0.0,4.0,76,0.00,,,0.00,0.00,VWS V14.01,2013-11-12 01:30:00,
2013-11-11 19:31:00,11.8,5.7,30.71,West,268,1.0,4.0,76,0.00,,,0.00,0.00,VWS V14.01,2013-11-12 01:31:00,
2013-11-11 19:36:00,11.8,5.7,30.71,WSW,245,2.0,4.0,76,0.00,,,0.00,0.00,VWS V14.01,2013-11-12 01:36:00,
2013-11-11 19:41:00,11.7,5.6,30.71,WSW,245,1.0,4.0,76,0.00,,,0.00,0.00,VWS V14.01,2013-11-12 01:41:00,
2013-11-11 19:46:00,11.6,5.5,30.71,WSW,245,2.0,4.0,76,0.00,,,0.00,0.00,VWS V14.01,2013-11-12 01:46:00,
2013-11-11 19:51:00,11.5,5.4,30.71,WSW,245,1.0,4.0,76,0.00,,,0.00,0.00,VWS V14.01,2013-11-12 01:51:00,
2013-11-11 19:56:00,11.4,5.3,30.71,WSW,245,1.0,4.0,76,0.00,,,0.00,0.00,VWS V14.01,2013-11-12 01:56:00,
2013-11-11 20:00:00,11.4,5.3,30.71,WSW,245,1.0,4.0,76,0.00,,,0.00,0.00,VWS V14.01,2013-11-12 02:00:00,
2013-11-11 20:01:00,11.3,5.2,30.70,WSW,245,3.0,4.0,76,0.00,,,0.00,0.00,VWS V14.01,2013-11-12 02:01:00,
2013-11-11 20:06:00,11.3,5.2,30.71,WSW,245,1.0,5.0,76,0.00,,,0.00,0.00,VWS V14.01,2013-11-12 02:06:00,
2013-11-11 20:11:00,11.2,5.1,30.71,WSW,245,0.0,5.0,76,0.00,,,0.00,0.00,VWS V14.01,2013-11-12 02:11:00,
2013-11-11 20:16:00,11.0,5.2,30.71,WSW,245,2.0,5.0,77,0.00,,,0.00,0.00,VWS V14.01,2013-11-12 02:16:00,
2013-11-11 20:21:00,10.9,5.1,30.71,WSW,245,3.0,5.0,77,0.00,,,0.00,0.00,VWS V14.01,2013-11-12 02:21:00,
2013-11-11 20:26:00,10.7,4.9,30.71,WSW,245,2.0,2.0,77,0.00,,,0.00,0.00,VWS V14.01,2013-11-12 02:26:00,
2013-11-11 20:30:00,10.7,4.9,30.71,WSW,245,2.0,5.0,77,0.00,,,0.00,0.00,VWS V14.01,2013-11-12 02:30:00,
2013-11-11 20:31:00,10.5,4.7,30.71,WSW,245,2.0,4.0,77,0.00,,,0.00,0.00,VWS V14.01,2013-11-12 02:31:00,
2013-11-11 20:36:00,10.3,4.5,30.71,WSW,245,2.0,4.0,77,0.00,,,0.00,0.00,VWS V14.01,2013-11-12 02:36:00,
2013-11-11 20:41:00,10.1,4.6,30.71,WSW,245,1.0,4.0,78,0.00,,,0.00,0.00,VWS V14.01,2013-11-12 02:41:00,
2013-11-11 20:46:00,10.0,4.5,30.71,WSW,245,3.0,5.0,78,0.00,,,0.00,0.00,VWS V14.01,2013-11-12 02:46:00,
2013-11-11 20:51:00,10.0,4.5,30.71,SW,214,3.0,7.0,78,0.00,,,0.00,0.00,VWS V14.01,2013-11-12 02:51:00,
2013-11-11 20:56:00,10.0,4.5,30.71,SSW,210,4.0,5.0,78,0.00,,,0.00,0.00,VWS V14.01,2013-11-12 02:56:00,
2013-11-11 21:00:00,10.0,4.5,30.71,SSW,205,3.0,7.0,78,0.00,,,0.00,0.00,VWS V14.01,2013-11-12 03:00:00,
2013-11-11 21:01:00,10.0,4.5,30.71,SSW,209,3.0,6.0,78,0.00,,,0.00,0.00,VWS V14.01,2013-11-12 03:01:00,
2013-11-11 21:06:00,10.0,4.5,30.71,SSW,209,1.0,6.0,78,0.00,,,0.00,0.00,VWS V14.01,2013-11-12 03:06:00,
2013-11-11 21:11:00,9.9,4.4,30.71,SSW,201,2.0,6.0,78,0.00,,,0.00,0.00,VWS V14.01,2013-11-12 03:11:00,
2013-11-11 21:16:00,9.8,4.3,30.71,SSW,198,3.0,6.0,78,0.00,,,0.00,0.00,VWS V14.01,2013-11-12 03:16:00,
2013-11-11 21:21:00,9.7,4.2,30.71,SSW,198,4.0,6.0,78,0.00,,,0.00,0.00,VWS V14.01,2013-11-12 03:21:00,
2013-11-11 21:26:00,9.6,4.1,30.71,SSW,200,5.0,7.0,78,0.00,,,0.00,0.00,VWS V14.01,2013-11-12 03:26:00,
2013-11-11 21:30:00,9.6,4.1,30.71,SSW,192,3.0,6.0,78,0.00,,,0.00,0.00,VWS V14.01,2013-11-12 03:30:00,
2013-11-11 21:31:00,9.6,4.1,30.71,SSW,195,4.0,7.0,78,0.00,,,0.00,0.00,VWS V14.01,2013-11-12 03:31:00,
2013-11-11 21:36:00,9.5,4.0,30.70,SSW,197,3.0,7.0,78,0.00,,,0.00,0.00,VWS V14.01,2013-11-12 03:36:00,
2013-11-11 21:41:00,9.5,4.0,30.70,SSW,197,7.0,7.0,78,0.00,,,0.00,0.00,VWS V14.01,2013-11-12 03:41:00,
2013-11-11 21:46:00,9.5,4.0,30.70,South,191,2.0,8.0,78,0.00,,,0.00,0.00,VWS V14.01,2013-11-12 03:46:00,
2013-11-11 21:51:00,9.5,3.8,30.69,SSW,202,9.0,9.0,77,0.00,,,0.00,0.00,VWS V14.01,2013-11-12 03:51:00,
2013-11-11 21:56:00,9.5,3.8,30.70,South,189,5.0,5.0,77,0.00,,,0.00,0.00,VWS V14.01,2013-11-12 03:56:00,
2013-11-11 22:00:00,9.5,3.8,30.70,SSW,192,5.0,9.0,77,0.00,,,0.00,0.00,VWS V14.01,2013-11-12 04:00:00,
2013-11-11 22:01:00,9.4,3.7,30.69,SW,216,5.0,8.0,77,0.00,,,0.00,0.00,VWS V14.01,2013-11-12 04:01:00,
2013-11-11 22:06:00,9.4,3.7,30.69,SSW,196,3.0,8.0,77,0.00,,,0.00,0.00,VWS V14.01,2013-11-12 04:06:00,
2013-11-11 22:11:00,9.3,3.6,30.69,SSW,192,3.0,11.0,77,0.00,,,0.00,0.00,VWS V14.01,2013-11-12 04:11:00,
2013-11-11 22:16:00,9.2,3.5,30.69,South,191,4.0,11.0,77,0.00,,,0.00,0.00,VWS V14.01,2013-11-12 04:16:00,
2013-11-11 22:21:00,9.1,3.4,30.68,SSW,201,3.0,11.0,77,0.00,,,0.00,0.00,VWS V14.01,2013-11-12 04:21:00,
2013-11-11 22:26:00,9.1,3.7,30.68,SSW,197,5.0,6.0,78,0.00,,,0.00,0.00,VWS V14.01,2013-11-12 04:26:00,
2013-11-11 22:30:00,9.1,3.7,30.68,South,175,3.0,11.0,78,0.00,,,0.00,0.00,VWS V14.01,2013-11-12 04:30:00,
2013-11-11 22:31:00,9.1,3.7,30.68,SSW,197,3.0,7.0,78,0.00,,,0.00,0.00,VWS V14.01,2013-11-12 04:31:00,
2013-11-11 22:36:00,9.0,3.5,30.68,SSW,206,4.0,8.0,78,0.00,,,0.00,0.00,VWS V14.01,2013-11-12 04:36:00,
2013-11-11 22:41:00,8.9,3.5,30.68,SSW,201,4.0,8.0,78,0.00,,,0.00,0.00,VWS V14.01,2013-11-12 04:41:00,
2013-11-11 22:46:00,8.8,3.4,30.68,SSW,194,6.0,8.0,78,0.00,,,0.00,0.00,VWS V14.01,2013-11-12 04:46:00,
2013-11-11 23:00:00,8.6,3.2,30.68,SSW,202,4.0,9.0,78,0.00,,,0.00,0.00,VWS V14.01,2013-11-12 05:00:00,
2013-11-11 23:30:00,8.4,3.0,30.68,South,180,4.0,7.0,78,0.00,,,0.00,0.00,VWS V14.01,2013-11-12 05:30:00,